LCO166 SUMU-SACO
Flight info
| Callsign | LCO166 |
|---|---|
| Flight time | 1h 17m |
| Altitude | 28000 |
| Route | NIMBO UL417 GUA UW2 ROS UW5 ASISA ASISA1Q |
| Aircraft | B763/H-SDE3FGHIM3RWXY/LB1 |
Departure
| Time | 2026-05-06 13:47 |
|---|---|
| Airport | Carrasco General Cesáreo L. Berisso International Airport (SUMU) |
Arrival
| Time | 2026-05-06 15:04 |
|---|---|
| Airport | Ingeniero Aeronáutico Ambrosio L.V. Taravella International Airport (SACO) |
| Time | Latitude | Longitude | Altitude | Speed | Heading |
|---|---|---|---|---|---|
| 2026-05-06 13:21 | -34.84195 | -56.02768 | 57 ft | 0 kts | 314° |
| 2026-05-06 13:37 | -34.84194 | -56.02769 | 57 ft | 1 kts | 314° |
| 2026-05-06 13:37 | -34.84179 | -56.02800 | 57 ft | 7 kts | 301° |
| 2026-05-06 13:38 | -34.84161 | -56.02835 | 57 ft | 2 kts | 301° |
| 2026-05-06 13:38 | -34.84145 | -56.02856 | 58 ft | 3 kts | 315° |
| 2026-05-06 13:38 | -34.84125 | -56.02866 | 59 ft | 2 kts | 359° |
| 2026-05-06 13:38 | -34.84119 | -56.02865 | 59 ft | 0 kts | 5° |
| 2026-05-06 13:40 | -34.84099 | -56.02858 | 60 ft | 5 kts | 20° |
| 2026-05-06 13:40 | -34.84089 | -56.02853 | 60 ft | 2 kts | 25° |
| 2026-05-06 13:41 | -34.84055 | -56.02826 | 62 ft | 9 kts | 40° |
| 2026-05-06 13:41 | -34.84002 | -56.02781 | 64 ft | 8 kts | 17° |
| 2026-05-06 13:41 | -34.83951 | -56.02801 | 65 ft | 8 kts | 324° |
| 2026-05-06 13:41 | -34.83902 | -56.02834 | 66 ft | 7 kts | 337° |
| 2026-05-06 13:42 | -34.83849 | -56.02849 | 67 ft | 7 kts | 355° |
| 2026-05-06 13:42 | -34.83794 | -56.02853 | 68 ft | 9 kts | 358° |
| 2026-05-06 13:42 | -34.83690 | -56.02849 | 72 ft | 20 kts | 2° |
| 2026-05-06 13:42 | -34.83506 | -56.02851 | 73 ft | 32 kts | 359° |
| 2026-05-06 13:43 | -34.83230 | -56.02854 | 73 ft | 45 kts | 0° |
| 2026-05-06 13:43 | -34.82916 | -56.02859 | 65 ft | 45 kts | 360° |
| 2026-05-06 13:43 | -34.82656 | -56.02861 | 56 ft | 15 kts | 360° |
| 2026-05-06 13:43 | -34.82562 | -56.02867 | 55 ft | 13 kts | 341° |
| 2026-05-06 13:44 | -34.82516 | -56.02955 | 52 ft | 13 kts | 271° |
| 2026-05-06 13:44 | -34.82519 | -56.03064 | 50 ft | 12 kts | 279° |
| 2026-05-06 13:44 | -34.82484 | -56.03102 | 48 ft | 8 kts | 357° |
| 2026-05-06 13:44 | -34.82416 | -56.03098 | 45 ft | 11 kts | 3° |
| 2026-05-06 13:45 | -34.82330 | -56.03096 | 42 ft | 13 kts | 360° |
| 2026-05-06 13:45 | -34.82185 | -56.03069 | 40 ft | 5 kts | 307° |
| 2026-05-06 13:45 | -34.82193 | -56.03103 | 39 ft | 2 kts | 192° |
| 2026-05-06 13:46 | -34.82227 | -56.03105 | 40 ft | 18 kts | 182° |
| 2026-05-06 13:46 | -34.82545 | -56.03098 | 50 ft | 72 kts | 179° |
| 2026-05-06 13:46 | -34.83228 | -56.03091 | 67 ft | 122 kts | 177° |
| 2026-05-06 13:46 | -34.84235 | -56.03066 | 125 ft | 165 kts | 176° |
| 2026-05-06 13:47 | -34.85426 | -56.03005 | 486 ft | 186 kts | 175° |
| 2026-05-06 13:47 | -34.86697 | -56.02923 | 1427 ft | 174 kts | 175° |
| 2026-05-06 13:47 | -34.87843 | -56.02867 | 1986 ft | 171 kts | 178° |
| 2026-05-06 13:47 | -34.89087 | -56.02881 | 2274 ft | 180 kts | 179° |
| 2026-05-06 13:48 | -34.90334 | -56.02898 | 2733 ft | 181 kts | 179° |
| 2026-05-06 13:48 | -34.91588 | -56.02916 | 3194 ft | 181 kts | 179° |
| 2026-05-06 13:48 | -34.92847 | -56.02933 | 3630 ft | 184 kts | 179° |
| 2026-05-06 13:48 | -34.94125 | -56.02992 | 4085 ft | 186 kts | 189° |
| 2026-05-06 13:49 | -34.95332 | -56.03571 | 4513 ft | 191 kts | 212° |
| 2026-05-06 13:49 | -34.96269 | -56.04730 | 4972 ft | 195 kts | 236° |
| 2026-05-06 13:49 | -34.96628 | -56.06397 | 5197 ft | 216 kts | 273° |
| 2026-05-06 13:49 | -34.96074 | -56.08177 | 5391 ft | 239 kts | 308° |
| 2026-05-06 13:50 | -34.94725 | -56.09403 | 5717 ft | 255 kts | 336° |
| 2026-05-06 13:50 | -34.93121 | -56.10491 | 6097 ft | 270 kts | 319° |
| 2026-05-06 13:50 | -34.91710 | -56.12045 | 6531 ft | 284 kts | 318° |
| 2026-05-06 13:50 | -34.90184 | -56.13595 | 7229 ft | 288 kts | 320° |
| 2026-05-06 13:51 | -34.88605 | -56.15117 | 7983 ft | 291 kts | 321° |
| 2026-05-06 13:51 | -34.87009 | -56.16621 | 8741 ft | 294 kts | 321° |
| 2026-05-06 13:51 | -34.85396 | -56.18122 | 9511 ft | 296 kts | 321° |
| 2026-05-06 13:51 | -34.83760 | -56.19632 | 10323 ft | 297 kts | 321° |
| 2026-05-06 13:52 | -34.82089 | -56.21170 | 10836 ft | 309 kts | 320° |
| 2026-05-06 13:52 | -34.80348 | -56.22772 | 11344 ft | 322 kts | 320° |
| 2026-05-06 13:52 | -34.78519 | -56.24450 | 11789 ft | 337 kts | 320° |
| 2026-05-06 13:52 | -34.76608 | -56.26202 | 12224 ft | 353 kts | 320° |
| 2026-05-06 13:53 | -34.74609 | -56.28032 | 12616 ft | 370 kts | 320° |
| 2026-05-06 13:53 | -34.72534 | -56.29930 | 13298 ft | 378 kts | 320° |
| 2026-05-06 13:53 | -34.70428 | -56.31854 | 14121 ft | 382 kts | 320° |
| 2026-05-06 13:53 | -34.68286 | -56.33810 | 14921 ft | 386 kts | 320° |
| 2026-05-06 13:54 | -34.66151 | -56.35758 | 15713 ft | 390 kts | 320° |
| 2026-05-06 13:54 | -34.63978 | -56.37741 | 16453 ft | 394 kts | 320° |
| 2026-05-06 13:54 | -34.61771 | -56.39751 | 17268 ft | 397 kts | 320° |
| 2026-05-06 13:54 | -34.59563 | -56.41763 | 18020 ft | 401 kts | 320° |
| 2026-05-06 13:55 | -34.57314 | -56.43810 | 18788 ft | 404 kts | 320° |
| 2026-05-06 13:55 | -34.55076 | -56.45846 | 19548 ft | 407 kts | 319° |
| 2026-05-06 13:55 | -34.52831 | -56.47894 | 20299 ft | 410 kts | 318° |
| 2026-05-06 13:55 | -34.50747 | -56.50236 | 21034 ft | 409 kts | 308° |
| 2026-05-06 13:56 | -34.48894 | -56.52875 | 21779 ft | 411 kts | 307° |
| 2026-05-06 13:56 | -34.47064 | -56.55506 | 22472 ft | 414 kts | 306° |
| 2026-05-06 13:56 | -34.45217 | -56.58175 | 23176 ft | 416 kts | 306° |
| 2026-05-06 13:56 | -34.43361 | -56.60859 | 23869 ft | 419 kts | 306° |
| 2026-05-06 13:57 | -34.41483 | -56.63579 | 24587 ft | 421 kts | 306° |
| 2026-05-06 13:57 | -34.39632 | -56.66257 | 25349 ft | 421 kts | 306° |
| 2026-05-06 13:57 | -34.37814 | -56.68887 | 26056 ft | 422 kts | 306° |
| 2026-05-06 13:57 | -34.35929 | -56.71614 | 26788 ft | 423 kts | 306° |
| 2026-05-06 13:58 | -34.34044 | -56.74339 | 27505 ft | 423 kts | 306° |
| 2026-05-06 13:58 | -34.32158 | -56.77064 | 28003 ft | 428 kts | 306° |
| 2026-05-06 13:58 | -34.30245 | -56.79827 | 27995 ft | 434 kts | 306° |
| 2026-05-06 13:58 | -34.28299 | -56.82633 | 27992 ft | 430 kts | 306° |
| 2026-05-06 13:59 | -34.26389 | -56.85383 | 27994 ft | 429 kts | 306° |
| 2026-05-06 13:59 | -34.24491 | -56.88113 | 27995 ft | 430 kts | 306° |
| 2026-05-06 13:59 | -34.22545 | -56.90907 | 27991 ft | 431 kts | 306° |
| 2026-05-06 13:59 | -34.20633 | -56.93650 | 27985 ft | 431 kts | 306° |
| 2026-05-06 14:00 | -34.18702 | -56.96420 | 27979 ft | 432 kts | 306° |
| 2026-05-06 14:00 | -34.16761 | -56.99200 | 27976 ft | 433 kts | 306° |
| 2026-05-06 14:00 | -34.14838 | -57.01953 | 27971 ft | 433 kts | 306° |
| 2026-05-06 14:00 | -34.12899 | -57.04726 | 27968 ft | 433 kts | 306° |
| 2026-05-06 14:01 | -34.10951 | -57.07509 | 27966 ft | 433 kts | 306° |
| 2026-05-06 14:01 | -34.09003 | -57.10291 | 27963 ft | 433 kts | 306° |
| 2026-05-06 14:01 | -34.07079 | -57.13037 | 27963 ft | 434 kts | 306° |
| 2026-05-06 14:01 | -34.05141 | -57.15799 | 27962 ft | 434 kts | 306° |
| 2026-05-06 14:02 | -34.03189 | -57.18581 | 27962 ft | 434 kts | 306° |
| 2026-05-06 14:02 | -34.01249 | -57.21342 | 27961 ft | 433 kts | 306° |
| 2026-05-06 14:02 | -33.99302 | -57.24112 | 27959 ft | 432 kts | 306° |
| 2026-05-06 14:02 | -33.97368 | -57.26864 | 27963 ft | 435 kts | 306° |
| 2026-05-06 14:03 | -33.95406 | -57.29651 | 27959 ft | 434 kts | 306° |
| 2026-05-06 14:03 | -33.93472 | -57.32394 | 27958 ft | 433 kts | 306° |
| 2026-05-06 14:03 | -33.91519 | -57.35164 | 27959 ft | 434 kts | 306° |
| 2026-05-06 14:03 | -33.89582 | -57.37907 | 27960 ft | 434 kts | 306° |
| 2026-05-06 14:04 | -33.87631 | -57.40676 | 27961 ft | 434 kts | 306° |
| 2026-05-06 14:04 | -33.85670 | -57.43459 | 27961 ft | 434 kts | 306° |
| 2026-05-06 14:04 | -33.83721 | -57.46222 | 27961 ft | 434 kts | 306° |
| 2026-05-06 14:04 | -33.81790 | -57.48958 | 27960 ft | 434 kts | 306° |
| 2026-05-06 14:05 | -33.79830 | -57.51733 | 27959 ft | 434 kts | 306° |
| 2026-05-06 14:05 | -33.77871 | -57.54504 | 27959 ft | 434 kts | 306° |
| 2026-05-06 14:05 | -33.75936 | -57.57239 | 27958 ft | 434 kts | 306° |
| 2026-05-06 14:05 | -33.73975 | -57.60010 | 27957 ft | 434 kts | 306° |
| 2026-05-06 14:06 | -33.72036 | -57.62746 | 27953 ft | 434 kts | 306° |
| 2026-05-06 14:06 | -33.70085 | -57.65498 | 27952 ft | 434 kts | 307° |
| 2026-05-06 14:06 | -33.68129 | -57.68252 | 27960 ft | 433 kts | 307° |
| 2026-05-06 14:06 | -33.66184 | -57.70992 | 27955 ft | 433 kts | 307° |
| 2026-05-06 14:07 | -33.64242 | -57.73725 | 27952 ft | 433 kts | 307° |
| 2026-05-06 14:07 | -33.62274 | -57.76492 | 27948 ft | 433 kts | 307° |
| 2026-05-06 14:07 | -33.60327 | -57.79229 | 27944 ft | 434 kts | 307° |
| 2026-05-06 14:07 | -33.58379 | -57.81964 | 27943 ft | 435 kts | 307° |
| 2026-05-06 14:08 | -33.56414 | -57.84721 | 27941 ft | 434 kts | 307° |
| 2026-05-06 14:08 | -33.54444 | -57.87482 | 27941 ft | 434 kts | 307° |
| 2026-05-06 14:08 | -33.52505 | -57.90198 | 27940 ft | 434 kts | 307° |
| 2026-05-06 14:08 | -33.50536 | -57.92946 | 27940 ft | 434 kts | 307° |
| 2026-05-06 14:09 | -33.48571 | -57.95684 | 27940 ft | 433 kts | 307° |
| 2026-05-06 14:09 | -33.46621 | -57.98402 | 27939 ft | 434 kts | 307° |
| 2026-05-06 14:09 | -33.44651 | -58.01145 | 27939 ft | 434 kts | 307° |
| 2026-05-06 14:09 | -33.42684 | -58.03881 | 27937 ft | 433 kts | 307° |
| 2026-05-06 14:10 | -33.40719 | -58.06611 | 27938 ft | 434 kts | 307° |
| 2026-05-06 14:10 | -33.38764 | -58.09327 | 27937 ft | 434 kts | 307° |
| 2026-05-06 14:10 | -33.36781 | -58.12078 | 27936 ft | 434 kts | 307° |
| 2026-05-06 14:10 | -33.34811 | -58.14809 | 27936 ft | 434 kts | 307° |
| 2026-05-06 14:11 | -33.32842 | -58.17538 | 27935 ft | 434 kts | 307° |
| 2026-05-06 14:11 | -33.30875 | -58.20263 | 27936 ft | 435 kts | 307° |
| 2026-05-06 14:11 | -33.28902 | -58.22992 | 27935 ft | 435 kts | 307° |
| 2026-05-06 14:11 | -33.26924 | -58.25727 | 27935 ft | 436 kts | 307° |
| 2026-05-06 14:12 | -33.24963 | -58.28436 | 27934 ft | 436 kts | 307° |
| 2026-05-06 14:12 | -33.22971 | -58.31186 | 27934 ft | 436 kts | 307° |
| 2026-05-06 14:12 | -33.20987 | -58.33923 | 27933 ft | 437 kts | 307° |
| 2026-05-06 14:12 | -33.18998 | -58.36665 | 27933 ft | 436 kts | 307° |
| 2026-05-06 14:13 | -33.17032 | -58.39373 | 27932 ft | 436 kts | 307° |
| 2026-05-06 14:13 | -33.15041 | -58.42113 | 27931 ft | 436 kts | 307° |
| 2026-05-06 14:13 | -33.13066 | -58.44830 | 27933 ft | 437 kts | 307° |
| 2026-05-06 14:13 | -33.11062 | -58.47583 | 27931 ft | 437 kts | 307° |
| 2026-05-06 14:14 | -33.09081 | -58.50304 | 27931 ft | 438 kts | 307° |
| 2026-05-06 14:14 | -33.07089 | -58.53038 | 27931 ft | 438 kts | 308° |
| 2026-05-06 14:14 | -33.05080 | -58.55797 | 27928 ft | 437 kts | 307° |
| 2026-05-06 14:14 | -33.03315 | -58.58699 | 27927 ft | 435 kts | 298° |
| 2026-05-06 14:15 | -33.01987 | -58.61948 | 27929 ft | 434 kts | 290° |
| 2026-05-06 14:15 | -33.01166 | -58.65348 | 27929 ft | 433 kts | 282° |
| 2026-05-06 14:15 | -33.00816 | -58.68958 | 27945 ft | 435 kts | 275° |
| 2026-05-06 14:15 | -33.00629 | -58.72524 | 27941 ft | 435 kts | 275° |
| 2026-05-06 14:16 | -33.00451 | -58.76091 | 27939 ft | 436 kts | 275° |
| 2026-05-06 14:16 | -33.00280 | -58.79715 | 27940 ft | 436 kts | 275° |
| 2026-05-06 14:16 | -33.00116 | -58.83320 | 27938 ft | 436 kts | 275° |
| 2026-05-06 14:16 | -32.99958 | -58.86896 | 27938 ft | 436 kts | 275° |
| 2026-05-06 14:17 | -32.99799 | -58.90524 | 27938 ft | 436 kts | 275° |
| 2026-05-06 14:17 | -32.99643 | -58.94128 | 27937 ft | 436 kts | 275° |
| 2026-05-06 14:17 | -32.99487 | -58.97732 | 27938 ft | 437 kts | 275° |
| 2026-05-06 14:17 | -32.99331 | -59.01342 | 27936 ft | 437 kts | 275° |
| 2026-05-06 14:18 | -32.99175 | -59.04937 | 27935 ft | 437 kts | 275° |
| 2026-05-06 14:18 | -32.99018 | -59.08553 | 27936 ft | 438 kts | 275° |
| 2026-05-06 14:18 | -32.98859 | -59.12171 | 27935 ft | 438 kts | 275° |
| 2026-05-06 14:18 | -32.98701 | -59.15789 | 27934 ft | 438 kts | 275° |
| 2026-05-06 14:19 | -32.98539 | -59.19437 | 27935 ft | 438 kts | 275° |
| 2026-05-06 14:19 | -32.98379 | -59.23047 | 27934 ft | 438 kts | 275° |
| 2026-05-06 14:19 | -32.98216 | -59.26676 | 27933 ft | 438 kts | 275° |
| 2026-05-06 14:19 | -32.98056 | -59.30245 | 27933 ft | 438 kts | 275° |
| 2026-05-06 14:20 | -32.97891 | -59.33899 | 27932 ft | 438 kts | 275° |
| 2026-05-06 14:20 | -32.97728 | -59.37482 | 27931 ft | 438 kts | 275° |
| 2026-05-06 14:20 | -32.97561 | -59.41116 | 27931 ft | 438 kts | 275° |
| 2026-05-06 14:20 | -32.97393 | -59.44753 | 27930 ft | 438 kts | 275° |
| 2026-05-06 14:21 | -32.97224 | -59.48391 | 27931 ft | 440 kts | 275° |
| 2026-05-06 14:21 | -32.97055 | -59.52011 | 27931 ft | 440 kts | 275° |
| 2026-05-06 14:21 | -32.96883 | -59.55664 | 27929 ft | 439 kts | 275° |
| 2026-05-06 14:21 | -32.96713 | -59.59266 | 27930 ft | 439 kts | 275° |
| 2026-05-06 14:22 | -32.96539 | -59.62910 | 27929 ft | 439 kts | 275° |
| 2026-05-06 14:22 | -32.96365 | -59.66538 | 27935 ft | 439 kts | 275° |
| 2026-05-06 14:22 | -32.96191 | -59.70143 | 27940 ft | 440 kts | 275° |
| 2026-05-06 14:22 | -32.96014 | -59.73798 | 27939 ft | 440 kts | 275° |
| 2026-05-06 14:23 | -32.95837 | -59.77420 | 27939 ft | 439 kts | 275° |
| 2026-05-06 14:23 | -32.95660 | -59.81036 | 27938 ft | 439 kts | 275° |
| 2026-05-06 14:23 | -32.95482 | -59.84645 | 27938 ft | 440 kts | 275° |
| 2026-05-06 14:23 | -32.95300 | -59.88308 | 27937 ft | 439 kts | 275° |
| 2026-05-06 14:24 | -32.95121 | -59.91889 | 27937 ft | 439 kts | 275° |
| 2026-05-06 14:24 | -32.94937 | -59.95555 | 27936 ft | 440 kts | 275° |
| 2026-05-06 14:24 | -32.94754 | -59.99194 | 27936 ft | 440 kts | 275° |
| 2026-05-06 14:24 | -32.94571 | -60.02784 | 27936 ft | 441 kts | 275° |
| 2026-05-06 14:25 | -32.94382 | -60.06478 | 27935 ft | 441 kts | 275° |
| 2026-05-06 14:25 | -32.94196 | -60.10107 | 27934 ft | 441 kts | 276° |
| 2026-05-06 14:25 | -32.94008 | -60.13736 | 27934 ft | 441 kts | 276° |
| 2026-05-06 14:25 | -32.93819 | -60.17382 | 27933 ft | 441 kts | 275° |
| 2026-05-06 14:26 | -32.93628 | -60.21019 | 27934 ft | 442 kts | 275° |
| 2026-05-06 14:26 | -32.93436 | -60.24678 | 27933 ft | 442 kts | 275° |
| 2026-05-06 14:26 | -32.93245 | -60.28312 | 27932 ft | 441 kts | 275° |
| 2026-05-06 14:26 | -32.93051 | -60.31948 | 27932 ft | 441 kts | 275° |
| 2026-05-06 14:27 | -32.92856 | -60.35610 | 27932 ft | 441 kts | 275° |
| 2026-05-06 14:27 | -32.92662 | -60.39217 | 27931 ft | 441 kts | 275° |
| 2026-05-06 14:27 | -32.92463 | -60.42887 | 27931 ft | 441 kts | 275° |
| 2026-05-06 14:27 | -32.92269 | -60.46471 | 27931 ft | 441 kts | 275° |
| 2026-05-06 14:28 | -32.92068 | -60.50145 | 27929 ft | 441 kts | 275° |
| 2026-05-06 14:28 | -32.91869 | -60.53768 | 27930 ft | 441 kts | 275° |
| 2026-05-06 14:28 | -32.91668 | -60.57421 | 27929 ft | 441 kts | 275° |
| 2026-05-06 14:28 | -32.91467 | -60.61044 | 27929 ft | 441 kts | 275° |
| 2026-05-06 14:29 | -32.91264 | -60.64675 | 27928 ft | 441 kts | 275° |
| 2026-05-06 14:29 | -32.91060 | -60.68324 | 27940 ft | 441 kts | 276° |
| 2026-05-06 14:29 | -32.90857 | -60.71926 | 27939 ft | 441 kts | 276° |
| 2026-05-06 14:29 | -32.90466 | -60.75574 | 27934 ft | 439 kts | 283° |
| 2026-05-06 14:30 | -32.89594 | -60.78981 | 27941 ft | 438 kts | 292° |
| 2026-05-06 14:30 | -32.88234 | -60.82265 | 27947 ft | 439 kts | 298° |
| 2026-05-06 14:30 | -32.86739 | -60.85441 | 27943 ft | 439 kts | 298° |
| 2026-05-06 14:30 | -32.85235 | -60.88595 | 27942 ft | 439 kts | 299° |
| 2026-05-06 14:31 | -32.83731 | -60.91712 | 27942 ft | 439 kts | 299° |
| 2026-05-06 14:31 | -32.82201 | -60.94855 | 27941 ft | 439 kts | 299° |
| 2026-05-06 14:31 | -32.80658 | -60.98005 | 27941 ft | 439 kts | 299° |
| 2026-05-06 14:31 | -32.79115 | -61.01144 | 27940 ft | 439 kts | 299° |
| 2026-05-06 14:32 | -32.77582 | -61.04250 | 27940 ft | 439 kts | 299° |
| 2026-05-06 14:32 | -32.76032 | -61.07384 | 27939 ft | 439 kts | 300° |
| 2026-05-06 14:32 | -32.74472 | -61.10529 | 27939 ft | 441 kts | 299° |
| 2026-05-06 14:32 | -32.72920 | -61.13656 | 27939 ft | 441 kts | 299° |
| 2026-05-06 14:33 | -32.71356 | -61.16803 | 27938 ft | 441 kts | 299° |
| 2026-05-06 14:33 | -32.69811 | -61.19908 | 27938 ft | 441 kts | 299° |
| 2026-05-06 14:33 | -32.68248 | -61.23046 | 27937 ft | 441 kts | 299° |
| 2026-05-06 14:33 | -32.66683 | -61.26185 | 27937 ft | 441 kts | 299° |
| 2026-05-06 14:34 | -32.65130 | -61.29296 | 27936 ft | 441 kts | 299° |
| 2026-05-06 14:34 | -32.63553 | -61.32453 | 27936 ft | 441 kts | 299° |
| 2026-05-06 14:34 | -32.62002 | -61.35555 | 27936 ft | 441 kts | 299° |
| 2026-05-06 14:34 | -32.60432 | -61.38691 | 27934 ft | 441 kts | 300° |
| 2026-05-06 14:35 | -32.58869 | -61.41812 | 27936 ft | 442 kts | 300° |
| 2026-05-06 14:35 | -32.57282 | -61.44976 | 27934 ft | 442 kts | 300° |
| 2026-05-06 14:35 | -32.55714 | -61.48103 | 27934 ft | 442 kts | 300° |
| 2026-05-06 14:35 | -32.54160 | -61.51197 | 27934 ft | 442 kts | 300° |
| 2026-05-06 14:36 | -32.52584 | -61.54331 | 27933 ft | 442 kts | 300° |
| 2026-05-06 14:36 | -32.51002 | -61.57475 | 27933 ft | 442 kts | 299° |
| 2026-05-06 14:36 | -32.49433 | -61.60592 | 27932 ft | 442 kts | 299° |
| 2026-05-06 14:36 | -32.47868 | -61.63699 | 27932 ft | 442 kts | 299° |
| 2026-05-06 14:37 | -32.46297 | -61.66814 | 27940 ft | 444 kts | 300° |
| 2026-05-06 14:37 | -32.44714 | -61.69952 | 27938 ft | 444 kts | 300° |
| 2026-05-06 14:37 | -32.43131 | -61.73085 | 27934 ft | 443 kts | 300° |
| 2026-05-06 14:37 | -32.41552 | -61.76207 | 27932 ft | 443 kts | 300° |
| 2026-05-06 14:38 | -32.39950 | -61.79374 | 27928 ft | 444 kts | 300° |
| 2026-05-06 14:38 | -32.38367 | -61.82499 | 27926 ft | 445 kts | 300° |
| 2026-05-06 14:38 | -32.36772 | -61.85646 | 27922 ft | 445 kts | 300° |
| 2026-05-06 14:38 | -32.35220 | -61.88705 | 27919 ft | 444 kts | 300° |
| 2026-05-06 14:39 | -32.33630 | -61.91838 | 27916 ft | 444 kts | 300° |
| 2026-05-06 14:39 | -32.32048 | -61.94953 | 27910 ft | 438 kts | 300° |
| 2026-05-06 14:39 | -32.30483 | -61.98034 | 27915 ft | 436 kts | 300° |
| 2026-05-06 14:39 | -32.28920 | -62.01109 | 27920 ft | 438 kts | 300° |
| 2026-05-06 14:40 | -32.27364 | -62.04167 | 27922 ft | 438 kts | 300° |
| 2026-05-06 14:40 | -32.25795 | -62.07247 | 27925 ft | 438 kts | 300° |
| 2026-05-06 14:40 | -32.24216 | -62.10346 | 27928 ft | 438 kts | 300° |
| 2026-05-06 14:40 | -32.22655 | -62.13406 | 27931 ft | 438 kts | 300° |
| 2026-05-06 14:41 | -32.21087 | -62.16478 | 27934 ft | 438 kts | 300° |
| 2026-05-06 14:41 | -32.19524 | -62.19535 | 27936 ft | 438 kts | 300° |
| 2026-05-06 14:41 | -32.17952 | -62.22610 | 27935 ft | 438 kts | 300° |
| 2026-05-06 14:41 | -32.16380 | -62.25682 | 27897 ft | 438 kts | 300° |
| 2026-05-06 14:42 | -32.14821 | -62.28724 | 27712 ft | 427 kts | 300° |
| 2026-05-06 14:42 | -32.13297 | -62.31696 | 27286 ft | 420 kts | 300° |
| 2026-05-06 14:42 | -32.11807 | -62.34602 | 26819 ft | 412 kts | 300° |
| 2026-05-06 14:42 | -32.10349 | -62.37441 | 26365 ft | 407 kts | 300° |
| 2026-05-06 14:43 | -32.08874 | -62.40314 | 25914 ft | 408 kts | 300° |
| 2026-05-06 14:43 | -32.07425 | -62.43132 | 25469 ft | 404 kts | 300° |
| 2026-05-06 14:43 | -32.05983 | -62.45934 | 25027 ft | 402 kts | 300° |
| 2026-05-06 14:43 | -32.04533 | -62.48751 | 24588 ft | 399 kts | 300° |
| 2026-05-06 14:44 | -32.03109 | -62.51514 | 24154 ft | 397 kts | 300° |
| 2026-05-06 14:44 | -32.01676 | -62.54293 | 23723 ft | 395 kts | 300° |
| 2026-05-06 14:44 | -32.00265 | -62.57026 | 23297 ft | 394 kts | 301° |
| 2026-05-06 14:45 | -31.97432 | -62.62509 | 22451 ft | 389 kts | 300° |
| 2026-05-06 14:45 | -31.96032 | -62.65218 | 22035 ft | 388 kts | 301° |
| 2026-05-06 14:45 | -31.94640 | -62.67904 | 21636 ft | 384 kts | 301° |
| 2026-05-06 14:45 | -31.93245 | -62.70599 | 21235 ft | 384 kts | 301° |
| 2026-05-06 14:46 | -31.91879 | -62.73234 | 20843 ft | 381 kts | 301° |
| 2026-05-06 14:46 | -31.90496 | -62.75900 | 20443 ft | 379 kts | 301° |
| 2026-05-06 14:46 | -31.89127 | -62.78538 | 20055 ft | 377 kts | 301° |
| 2026-05-06 14:46 | -31.87762 | -62.81166 | 19667 ft | 377 kts | 301° |
| 2026-05-06 14:47 | -31.86416 | -62.83756 | 19286 ft | 374 kts | 302° |
| 2026-05-06 14:47 | -31.85072 | -62.86340 | 18901 ft | 372 kts | 302° |
| 2026-05-06 14:47 | -31.83713 | -62.88952 | 18513 ft | 372 kts | 302° |
| 2026-05-06 14:47 | -31.82461 | -62.91575 | 18103 ft | 370 kts | 295° |
| 2026-05-06 14:48 | -31.81617 | -62.94419 | 17626 ft | 370 kts | 288° |
| 2026-05-06 14:48 | -31.80872 | -62.97298 | 17150 ft | 369 kts | 290° |
| 2026-05-06 14:48 | -31.80074 | -63.00143 | 16674 ft | 368 kts | 290° |
| 2026-05-06 14:48 | -31.79240 | -63.03005 | 16192 ft | 368 kts | 291° |
| 2026-05-06 14:49 | -31.78393 | -63.05837 | 15713 ft | 368 kts | 291° |
| 2026-05-06 14:49 | -31.77536 | -63.08656 | 15235 ft | 366 kts | 291° |
| 2026-05-06 14:49 | -31.76677 | -63.11454 | 14760 ft | 365 kts | 291° |
| 2026-05-06 14:49 | -31.75819 | -63.14232 | 14288 ft | 365 kts | 291° |
| 2026-05-06 14:50 | -31.74943 | -63.17057 | 13808 ft | 364 kts | 291° |
| 2026-05-06 14:50 | -31.74080 | -63.19833 | 13337 ft | 364 kts | 292° |
| 2026-05-06 14:50 | -31.73214 | -63.22615 | 12862 ft | 362 kts | 292° |
| 2026-05-06 14:50 | -31.72351 | -63.25378 | 12393 ft | 362 kts | 292° |
| 2026-05-06 14:51 | -31.71488 | -63.28141 | 11922 ft | 360 kts | 292° |
| 2026-05-06 14:51 | -31.70626 | -63.30898 | 11454 ft | 360 kts | 292° |
| 2026-05-06 14:51 | -31.69763 | -63.33655 | 10984 ft | 358 kts | 292° |
| 2026-05-06 14:51 | -31.68915 | -63.36362 | 10525 ft | 357 kts | 292° |
| 2026-05-06 14:52 | -31.68057 | -63.39099 | 10059 ft | 355 kts | 292° |
| 2026-05-06 14:52 | -31.67211 | -63.41793 | 9601 ft | 352 kts | 292° |
| 2026-05-06 14:52 | -31.66368 | -63.44476 | 9153 ft | 348 kts | 292° |
| 2026-05-06 14:52 | -31.65536 | -63.47123 | 8720 ft | 345 kts | 292° |
| 2026-05-06 14:53 | -31.64710 | -63.49746 | 8314 ft | 341 kts | 292° |
| 2026-05-06 14:53 | -31.63888 | -63.52356 | 7932 ft | 337 kts | 292° |
| 2026-05-06 14:53 | -31.63092 | -63.54883 | 7584 ft | 332 kts | 292° |
| 2026-05-06 14:53 | -31.62293 | -63.57415 | 7257 ft | 327 kts | 292° |
| 2026-05-06 14:54 | -31.61513 | -63.59883 | 6973 ft | 321 kts | 292° |
| 2026-05-06 14:54 | -31.60747 | -63.62314 | 6701 ft | 314 kts | 293° |
| 2026-05-06 14:54 | -31.59999 | -63.64679 | 6481 ft | 307 kts | 292° |
| 2026-05-06 14:54 | -31.59267 | -63.67009 | 6268 ft | 300 kts | 293° |
| 2026-05-06 14:55 | -31.58548 | -63.69269 | 6088 ft | 292 kts | 293° |
| 2026-05-06 14:55 | -31.57853 | -63.71461 | 5934 ft | 285 kts | 293° |
| 2026-05-06 14:55 | -31.57170 | -63.73622 | 5782 ft | 277 kts | 293° |
| 2026-05-06 14:55 | -31.56506 | -63.75713 | 5646 ft | 269 kts | 294° |
| 2026-05-06 14:56 | -31.55847 | -63.77773 | 5533 ft | 268 kts | 293° |
| 2026-05-06 14:56 | -31.55197 | -63.79818 | 5429 ft | 268 kts | 294° |
| 2026-05-06 14:56 | -31.54545 | -63.81862 | 5312 ft | 268 kts | 294° |
| 2026-05-06 14:56 | -31.53904 | -63.83885 | 5175 ft | 267 kts | 293° |
| 2026-05-06 14:57 | -31.53254 | -63.85924 | 5020 ft | 267 kts | 293° |
| 2026-05-06 14:57 | -31.52601 | -63.87968 | 4837 ft | 266 kts | 293° |
| 2026-05-06 14:57 | -31.51962 | -63.89975 | 4642 ft | 261 kts | 293° |
| 2026-05-06 14:57 | -31.51337 | -63.91943 | 4493 ft | 255 kts | 294° |
| 2026-05-06 14:58 | -31.50721 | -63.93875 | 4379 ft | 247 kts | 293° |
| 2026-05-06 14:58 | -31.50129 | -63.95729 | 4311 ft | 238 kts | 293° |
| 2026-05-06 14:58 | -31.49563 | -63.97504 | 4284 ft | 229 kts | 294° |
| 2026-05-06 14:58 | -31.49004 | -63.99248 | 4308 ft | 231 kts | 294° |
| 2026-05-06 14:59 | -31.48436 | -64.01021 | 4259 ft | 234 kts | 294° |
| 2026-05-06 14:59 | -31.47869 | -64.02792 | 4036 ft | 233 kts | 294° |
| 2026-05-06 14:59 | -31.47303 | -64.04562 | 3848 ft | 230 kts | 294° |
| 2026-05-06 14:59 | -31.46741 | -64.06314 | 3752 ft | 230 kts | 294° |
| 2026-05-06 15:00 | -31.46172 | -64.08089 | 3587 ft | 229 kts | 294° |
| 2026-05-06 15:00 | -31.45624 | -64.09801 | 3597 ft | 224 kts | 294° |
| 2026-05-06 15:00 | -31.45075 | -64.11510 | 3605 ft | 225 kts | 294° |
| 2026-05-06 15:00 | -31.44528 | -64.13214 | 3602 ft | 225 kts | 294° |
| 2026-05-06 15:01 | -31.43974 | -64.14936 | 3599 ft | 225 kts | 294° |
| 2026-05-06 15:01 | -31.43165 | -64.16448 | 3431 ft | 216 kts | 322° |
| 2026-05-06 15:01 | -31.41925 | -64.17442 | 3117 ft | 211 kts | 332° |
| 2026-05-06 15:01 | -31.40732 | -64.18304 | 2930 ft | 199 kts | 332° |
| 2026-05-06 15:02 | -31.39540 | -64.19155 | 2516 ft | 200 kts | 331° |
| 2026-05-06 15:02 | -31.38413 | -64.19955 | 2513 ft | 177 kts | 332° |
| 2026-05-06 15:02 | -31.37386 | -64.20572 | 2496 ft | 159 kts | 351° |
| 2026-05-06 15:02 | -31.36323 | -64.20657 | 2382 ft | 154 kts | 1° |
| 2026-05-06 15:03 | -31.35236 | -64.20717 | 2087 ft | 157 kts | 358° |
| 2026-05-06 15:03 | -31.34160 | -64.20785 | 1889 ft | 150 kts | 1° |
| 2026-05-06 15:03 | -31.33175 | -64.20789 | 1701 ft | 146 kts | 2° |
| 2026-05-06 15:03 | -31.32181 | -64.20810 | 1551 ft | 139 kts | 1° |
| 2026-05-06 15:04 | -31.31305 | -64.20818 | 1564 ft | 97 kts | 355° |
| 2026-05-06 15:04 | -31.30824 | -64.20830 | 1577 ft | 49 kts | 358° |
| 2026-05-06 15:04 | -31.30627 | -64.20835 | 1584 ft | 12 kts | 0° |
| 2026-05-06 15:04 | -31.30496 | -64.20840 | 1586 ft | 25 kts | 359° |
| 2026-05-06 15:05 | -31.30297 | -64.20844 | 1594 ft | 28 kts | 357° |